Latest Weather Observations for Thursday Island

IDQ60801

Issued at 8:02 pm EST Saturday 22 February 2020 (issued every 10 minutes, with the page automatically refreshed every 10 minutes)

About weather observations | Map of weather stations | Latest weather observations for QLD | Other Formats
Station Details ID: 200892 Name: TORRES STRAIT NTC AWS Lat: -10.59 Lon: 142.22 Height: 3.0 m
Data from the previous 72 hours. | See also: Recent months for locations in Queensland
Date/Time
EST
Temp
°C
App
Temp
°C
Dew
Point
°C
Rel
Hum
%
Delta-T
°C
Wind Press
QNH
hPa
Press
MSL
hPa
Rain since
9am
mm
Dir  Spd
km/h
Gust
km/h
Spd
kts
Gust
kts
22/08:00pm 29.0 - - - - NNW 7 15 4 8 1005.5 1005.5 -
22/07:30pm 29.0 - - - - NNW 7 19 4 10 1005.2 1005.2 -
22/07:00pm 29.2 - - - - NW 15 30 8 16 1004.9 1004.9 -
22/06:30pm 28.9 - - - - NW 13 19 7 10 1004.4 1004.4 -
22/06:00pm 28.9 - - - - NW 13 20 7 11 1004.4 1004.4 -
22/05:30pm 29.1 - - - - NNW 9 20 5 11 1004.0 1004.0 -
22/05:00pm 29.1 - - - - NNW 11 26 6 14 1004.1 1004.1 -
22/04:30pm 29.1 - - - - NNW 15 22 8 12 1004.2 1004.2 -
22/04:00pm 29.3 - - - - NW 20 33 11 18 1004.1 1004.1 -
22/03:30pm 29.4 - - - - NW 19 30 10 16 1004.3 1004.3 -
22/03:00pm 29.6 - - - - NW 17 28 9 15 1004.7 1004.7 -
22/02:30pm 29.4 - - - - NNW 13 24 7 13 1005.0 1005.0 -
22/02:00pm 29.1 - - - - NW 20 33 11 18 1005.6 1005.6 -
22/01:30pm 29.4 - - - - NW 19 32 10 17 1006.3 1006.3 -
22/01:00pm 29.1 - - - - NW 20 32 11 17 1006.7 1006.7 -
22/12:30pm 29.1 - - - - NW 22 35 12 19 1007.5 1007.5 -
22/12:00pm 29.0 - - - - NNW 17 30 9 16 1007.7 1007.7 -
22/11:30am 29.0 - - - - NNW 20 33 11 18 1008.1 1008.1 -
22/11:00am 29.1 - - - - NNW 17 33 9 18 1008.1 1008.1 -
22/10:30am 28.7 - - - - NNW 19 33 10 18 1008.5 1008.5 -
22/10:00am 28.9 - - - - N 17 32 9 17 1008.3 1008.3 -
22/09:30am 28.4 - - - - N 19 32 10 17 1008.1 1008.1 -
22/09:00am 28.0 - - - - N 15 28 8 15 1008.1 1008.1 -
22/08:30am 27.9 - - - - N 17 30 9 16 1007.7 1007.7 -
22/08:00am 27.2 - - - - NNW 9 19 5 10 1007.3 1007.3 -
22/07:30am 26.8 - - - - NW 15 26 8 14 1007.0 1007.0 -
22/07:00am 26.5 - - - - NW 17 30 9 16 1006.8 1006.8 -
22/06:30am 25.6 - - - - NW 24 39 13 21 1006.8 1006.8 -
22/06:00am 25.8 - - - - NW 15 24 8 13 1006.7 1006.7 -
22/05:30am 25.3 - - - - NW 20 39 11 21 1006.8 1006.8 -
22/05:04am 25.8 - - - - NNW 17 48 9 26 1006.4 1006.4 -
22/05:03am 25.9 - - - - NNW 15 48 8 26 1006.4 1006.4 -
22/05:00am 26.6 - - - - N 9 17 5 9 1006.2 1006.2 -
22/04:30am 27.7 - - - - NNW 13 24 7 13 1005.8 1005.8 -
22/04:00am 27.6 - - - - N 15 28 8 15 1005.8 1005.8 -
22/03:30am 27.5 - - - - N 20 37 11 20 1005.9 1005.9 -
22/03:00am 27.5 - - - - N 17 26 9 14 1006.2 1006.2 -
22/02:30am 27.5 - - - - N 15 28 8 15 1006.5 1006.5 -
22/02:00am 26.4 - - - - NNW 7 15 4 8 1006.5 1006.5 -
22/01:30am 25.0 - - - - WNW 28 46 15 25 1007.1 1007.1 -
22/01:09am 25.7 - - - - NW 24 63 13 34 1007.3 1007.3 -
22/01:08am 25.8 - - - - NW 22 46 12 25 1007.2 1007.2 -
22/01:00am 28.1 - - - - N 15 24 8 13 1006.9 1006.9 -
22/12:30am 27.9 - - - - NNW 11 20 6 11 1007.3 1007.3 -
22/12:00am 27.6 - - - - NNW 11 17 6 9 1007.6 1007.6 -
 
Date/Time
EST
Temp
°C
App
Temp
°C
Dew
Point
°C
Rel
Hum
%
Delta-T
°C
Wind Press
QNH
hPa
Press
MSL
hPa
Rain since
9am
mm
Dir  Spd
km/h
Gust
km/h
Spd
kts
Gust
kts
21/11:30pm 28.1 - - - - N 9 15 5 8 1007.7 1007.7 -
21/11:00pm 28.0 - - - - NNW 11 22 6 12 1007.8 1007.8 -
21/10:30pm 28.2 - - - - N 11 24 6 13 1007.9 1007.9 -
21/10:00pm 28.1 - - - - NNW 9 20 5 11 1007.6 1007.6 -
21/09:30pm 27.4 - - - - N 9 15 5 8 1007.4 1007.4 -
21/09:00pm 28.5 - - - - NW 15 26 8 14 1007.1 1007.1 -
21/08:30pm 28.4 - - - - NW 15 26 8 14 1006.9 1006.9 -
21/08:00pm 28.4 - - - - NW 17 26 9 14 1006.9 1006.9 -
21/07:30pm 28.2 - - - - NW 11 20 6 11 1006.5 1006.5 -
21/07:00pm 28.0 - - - - NW 17 24 9 13 1005.8 1005.8 -
21/06:30pm 27.9 - - - - NW 17 24 9 13 1005.5 1005.5 -
21/06:00pm 27.7 - - - - NW 19 37 10 20 1005.2 1005.2 -
21/05:30pm 27.3 - - - - NW 22 33 12 18 1004.8 1004.8 -
21/05:00pm 27.5 - - - - NW 15 24 8 13 1004.2 1004.2 -
21/04:30pm 27.3 - - - - NW 17 26 9 14 1004.2 1004.2 -
21/04:00pm 27.5 - - - - WNW 24 35 13 19 1004.6 1004.6 -
21/03:30pm 27.0 - - - - NW 22 35 12 19 1005.3 1005.3 -
21/03:00pm 26.9 - - - - WNW 24 37 13 20 1005.7 1005.7 -
21/02:30pm 27.4 - - - - NW 20 35 11 19 1005.9 1005.9 -
21/02:00pm 27.5 - - - - WNW 20 32 11 17 1006.5 1006.5 -
21/01:30pm 26.9 - - - - WNW 17 26 9 14 1007.0 1007.0 -
21/01:00pm 26.3 - - - - NW 15 22 8 12 1007.3 1007.3 -
21/12:30pm 26.4 - - - - WNW 17 26 9 14 1007.7 1007.7 -
21/12:00pm 26.5 - - - - WNW 26 39 14 21 1008.1 1008.1 -
21/11:30am 26.2 - - - - W 30 43 16 23 1008.6 1008.6 -
21/11:18am 25.9 - - - - WNW 30 46 16 25 1008.6 1008.6 -
21/11:00am 25.5 - - - - NW 19 28 10 15 1008.8 1008.8 -
21/10:30am 26.2 - - - - NW 19 30 10 16 1009.0 1009.0 -
21/10:00am 26.0 - - - - NW 19 30 10 16 1008.9 1008.9 -
21/09:30am 26.0 - - - - WNW 30 41 16 22 1009.0 1009.0 -
21/09:01am 25.8 - - - - WNW 28 46 15 25 1008.9 1008.9 -
21/09:00am 25.8 - - - - WNW 30 46 16 25 1009.0 1009.0 -
21/08:54am 25.7 - - - - WNW 28 46 15 25 1008.9 1008.9 -
21/08:30am 25.8 - - - - NW 22 37 12 20 1008.4 1008.4 -
21/08:00am 25.9 - - - - NW 22 37 12 20 1008.0 1008.0 -
21/07:30am 25.8 - - - - WNW 32 50 17 27 1007.6 1007.6 -
21/07:24am 26.3 - - - - NW 24 50 13 27 1007.4 1007.4 -
21/07:22am 26.6 - - - - NNW 20 50 11 27 1007.4 1007.4 -
21/07:00am 27.4 - - - - NNW 11 24 6 13 1007.1 1007.1 -
21/06:30am 26.9 - - - - NNW 9 24 5 13 1006.8 1006.8 -
21/06:00am 27.4 - - - - N 11 19 6 10 1006.3 1006.3 -
21/05:30am 27.3 - - - - N 11 19 6 10 1006.2 1006.2 -
21/05:00am 26.4 - - - - N 9 19 5 10 1005.9 1005.9 -
21/04:30am 25.6 - - - - N 6 11 3 6 1005.8 1005.8 -
21/04:00am 25.4 - - - - NNW 7 13 4 7 1005.8 1005.8 -
21/03:30am 25.2 - - - - NNW 13 26 7 14 1006.0 1006.0 -
21/03:00am 26.0 - - - - NNE 9 15 5 8 1005.6 1005.6 -
21/02:30am 24.7 - - - - NW 22 46 12 25 1006.4 1006.4 -
21/02:25am 26.1 - - - - WNW 22 46 12 25 1006.4 1006.4 -
21/02:00am 28.6 - - - - NW 11 22 6 12 1006.1 1006.1 -
21/01:30am 28.4 - - - - NW 13 22 7 12 1006.6 1006.6 -
21/01:00am 28.4 - - - - NW 19 32 10 17 1007.0 1007.0 -
21/12:30am 28.7 - - - - NW 19 28 10 15 1007.3 1007.3 -
21/12:00am 28.9 - - - - NW 15 22 8 12 1007.4 1007.4 -
 
Date/Time
EST
Temp
°C
App
Temp
°C
Dew
Point
°C
Rel
Hum
%
Delta-T
°C
Wind Press
QNH
hPa
Press
MSL
hPa
Rain since
9am
mm
Dir  Spd
km/h
Gust
km/h
Spd
kts
Gust
kts
20/11:30pm 29.0 - - - - NW 11 19 6 10 1007.8 1007.8 -
20/11:00pm 28.9 - - - - NW 13 19 7 10 1007.7 1007.7 -
20/10:30pm 28.5 - - - - WNW 19 33 10 18 1007.4 1007.4 -
20/10:00pm 29.0 - - - - NW 17 24 9 13 1007.2 1007.2 -
20/09:30pm 29.1 - - - - WNW 22 30 12 16 1007.0 1007.0 -
20/09:00pm 28.9 - - - - WNW 20 30 11 16 1006.9 1006.9 -
20/08:30pm 29.0 - - - - WNW 24 32 13 17 1006.5 1006.5 -
20/08:00pm 28.7 - - - - WNW 26 39 14 21 1005.9 1005.9 -
20/07:30pm 28.7 - - - - WNW 28 39 15 21 1005.6 1005.6 -
20/07:00pm 28.6 - - - - WNW 22 32 12 17 1005.6 1005.6 -
20/06:30pm 28.6 - - - - WNW 26 35 14 19 1005.1 1005.1 -
20/06:00pm 28.9 - - - - WNW 32 44 17 24 1004.9 1004.9 -
20/05:30pm 28.8 - - - - WNW 30 43 16 23 1004.4 1004.4 -
20/05:00pm 28.7 - - - - WNW 28 37 15 20 1004.0 1004.0 -
20/04:30pm 28.6 - - - - WNW 32 39 17 21 1003.9 1003.9 -
20/04:00pm 28.9 - - - - WNW 24 39 13 21 1004.2 1004.2 -
20/03:30pm 28.6 - - - - NW 24 35 13 19 1004.2 1004.2 -
20/03:00pm 29.0 - - - - NW 24 39 13 21 1004.2 1004.2 -
20/02:30pm 29.2 - - - - NW 20 35 11 19 1004.7 1004.7 -
20/02:00pm 29.1 - - - - NW 22 37 12 20 1005.0 1005.0 -
20/01:30pm 28.3 - - - - NW 26 43 14 23 1005.5 1005.5 -
20/01:04pm 27.0 - - - - WNW 28 48 15 26 1005.8 1005.8 -
20/01:00pm 26.4 - - - - WNW 32 48 17 26 1006.0 1006.0 -
20/12:30pm 29.3 - - - - NW 17 32 9 17 1006.2 1006.2 -
20/12:00pm 29.1 - - - - NW 20 35 11 19 1007.0 1007.0 -
20/11:30am 28.6 - - - - NW 17 32 9 17 1007.5 1007.5 -
20/11:00am 28.4 - - - - NW 20 35 11 19 1007.6 1007.6 -
20/10:30am 28.2 - - - - NW 26 41 14 22 1007.4 1007.4 -
20/10:15am 28.1 - - - - NW 28 50 15 27 1007.5 1007.5 -
20/10:00am 28.3 - - - - NW 22 37 12 20 1007.5 1007.5 -
20/09:30am 27.4 - - - - NNW 9 20 5 11 1007.6 1007.6 -
20/09:00am 27.4 - - - - NW 20 37 11 20 1007.5 1007.5 -
20/08:30am 27.1 - - - - NW 20 35 11 19 1007.5 1007.5 -
20/08:00am 26.8 - - - - NW 26 46 14 25 1007.3 1007.3 -
20/07:58am 26.8 - - - - NW 28 46 15 25 1007.3 1007.3 -
20/07:30am 26.8 - - - - NW 19 33 10 18 1006.6 1006.6 -
20/07:00am 26.7 - - - - NW 20 39 11 21 1006.4 1006.4 -
20/06:30am 26.7 - - - - NNW 11 24 6 13 1006.1 1006.1 -
20/06:00am 26.3 - - - - NNW 11 26 6 14 1005.7 1005.7 -
20/05:30am 25.8 - - - - NW 11 17 6 9 1004.9 1004.9 -
20/05:00am 25.4 - - - - WNW 19 26 10 14 1004.8 1004.8 -
20/04:30am 28.0 - - - - NNW 9 20 5 11 1004.7 1004.7 -
20/04:00am 27.9 - - - - NW 13 24 7 13 1004.7 1004.7 -
20/03:30am 27.4 - - - - NW 13 20 7 11 1004.6 1004.6 -
20/03:00am 27.1 - - - - WNW 24 35 13 19 1004.7 1004.7 -
20/02:30am 26.9 - - - - NW 17 41 9 22 1005.1 1005.1 -
20/02:00am 28.8 - - - - NNW 9 20 5 11 1005.3 1005.3 -
20/01:30am 28.8 - - - - NNW 11 24 6 13 1005.7 1005.7 -
20/01:00am 29.4 - - - - NW 15 24 8 13 1006.2 1006.2 -
20/12:30am 29.2 - - - - NNW 9 19 5 10 1006.4 1006.4 -
20/12:00am 28.2 - - - - NNW 4 13 2 7 1006.8 1006.8 -
 
Date/Time
EST
Temp
°C
App
Temp
°C
Dew
Point
°C
Rel
Hum
%
Delta-T
°C
Wind Press
QNH
hPa
Press
MSL
hPa
Rain since
9am
mm
Dir  Spd
km/h
Gust
km/h
Spd
kts
Gust
kts
19/11:30pm 27.5 - - - - N 11 19 6 10 1006.9 1006.9 -
19/11:00pm 27.8 - - - - NNW 19 39 10 21 1007.2 1007.2 -
19/10:30pm 29.3 - - - - NW 13 28 7 15 1007.3 1007.3 -
19/10:00pm 29.0 - - - - NW 11 17 6 9 1007.1 1007.1 -
19/09:30pm 29.2 - - - - NW 13 20 7 11 1006.9 1006.9 -
19/09:00pm 29.0 - - - - NW 15 24 8 13 1006.6 1006.6 -
19/08:30pm 29.6 - - - - NW 9 15 5 8 1006.1 1006.1 -

Other formats

Comma delimited format used in spreadsheet applications
http://www.bom.gov.au/fwo/IDQ60801/IDQ60801.94181.axf

JavaScript Object Notation format (JSON) in row-major order
http://www.bom.gov.au/fwo/IDQ60801/IDQ60801.94181.json

Data quality

Most of these data are generated automatically and are frequently updated. Quality checks on data are not normally performed. It is possible for incorrect values to appear. Refer to information at About Latest Weather Observations and please check the disclaimer before using these data.